createdAt,value
2017-11-15T00:00:21.994Z,8.12
2017-11-15T00:01:21.982Z,8.09
2017-11-15T00:02:22.002Z,7.98
2017-11-15T00:03:22.024Z,8.06
2017-11-15T00:04:22.027Z,8.09
2017-11-15T00:05:21.765Z,8.08
2017-11-15T00:06:21.787Z,8.08
2017-11-15T00:07:22.066Z,7.98
2017-11-15T00:08:21.808Z,7.94
2017-11-15T00:09:22.078Z,8.03
2017-11-15T00:10:21.833Z,8.03
2017-11-15T00:11:22.139Z,8.1
2017-11-15T00:12:21.853Z,8.12
2017-11-15T00:13:21.866Z,8.08
2017-11-15T00:14:21.620Z,8.03
2017-11-15T00:15:21.904Z,8.09
2017-11-15T00:16:22.175Z,8.05
2017-11-15T00:17:22.189Z,8.16
2017-11-15T00:18:21.666Z,8.08
2017-11-15T00:19:21.953Z,8.03
2017-11-15T00:20:22.225Z,8.01
2017-11-15T00:21:22.237Z,8
2017-11-15T00:22:22.256Z,8.12
2017-11-15T00:23:21.999Z,8.1
2017-11-15T00:24:22.283Z,8.15
2017-11-15T00:25:22.297Z,8.13
2017-11-15T00:26:22.040Z,8.01
2017-11-15T00:27:22.322Z,8.09
2017-11-15T00:28:22.066Z,8.03
2017-11-15T00:29:21.803Z,8.05
2017-11-15T00:30:22.367Z,8.03
2017-11-15T00:31:22.368Z,8
2017-11-15T00:32:22.130Z,8.03
2017-11-15T00:33:22.121Z,8.12
2017-11-15T00:34:22.406Z,8.16
2017-11-15T00:35:22.160Z,8.08
2017-11-15T00:36:21.892Z,8.06
2017-11-15T00:37:22.452Z,8.09
2017-11-15T00:38:22.464Z,8.06
2017-11-15T00:39:22.203Z,8.05
2017-11-15T00:40:22.212Z,8.08
2017-11-15T00:41:22.505Z,8.06
2017-11-15T00:42:21.972Z,8.05
2017-11-15T00:43:22.527Z,8
2017-11-15T00:44:22.543Z,8.1
2017-11-15T00:45:22.290Z,8.09
2017-11-15T00:46:22.294Z,8.06
2017-11-15T00:47:22.308Z,8.2
2017-11-15T00:48:22.317Z,8.1
2017-11-15T00:49:22.610Z,8.06
2017-11-15T00:50:22.616Z,8.09
2017-11-15T00:51:22.633Z,8.06
2017-11-15T00:52:22.644Z,8.1
2017-11-15T00:53:22.650Z,8.08
2017-11-15T00:54:22.424Z,8.08
2017-11-15T00:55:22.406Z,8.08
2017-11-15T00:56:22.723Z,8.05
2017-11-15T00:57:22.716Z,8.06
2017-11-15T00:58:22.453Z,8.09
2017-11-15T00:59:22.749Z,8.12
2017-11-15T01:00:22.479Z,8.09
2017-11-15T01:01:22.941Z,8.12
2017-11-15T01:02:22.787Z,8.09
2017-11-15T01:03:22.781Z,8.09
2017-11-15T01:04:22.793Z,8.03
2017-11-15T01:05:22.536Z,8.06
2017-11-15T01:06:22.549Z,8.03
2017-11-15T01:07:22.828Z,8.08
2017-11-15T01:08:22.574Z,8.01
2017-11-15T01:09:22.854Z,8.06
2017-11-15T01:10:22.605Z,8.1
2017-11-15T01:11:22.612Z,8.08
2017-11-15T01:12:22.361Z,8.08
2017-11-15T01:13:22.634Z,8.1
2017-11-15T01:14:22.664Z,8.01
2017-11-15T01:15:22.964Z,8.08
2017-11-15T01:16:22.687Z,8.08
2017-11-15T01:17:22.697Z,8.06
2017-11-15T01:18:22.718Z,7.98
2017-11-15T01:19:22.985Z,8.06
2017-11-15T01:20:23.002Z,8.08
2017-11-15T01:21:22.470Z,7.95
2017-11-15T01:22:23.032Z,8.09
2017-11-15T01:23:23.055Z,8.1
2017-11-15T01:24:22.791Z,8.01
2017-11-15T01:25:23.092Z,8.05
2017-11-15T01:26:22.809Z,8.09
2017-11-15T01:27:23.090Z,8.16
2017-11-15T01:28:23.098Z,8.1
2017-11-15T01:29:23.117Z,8.08
2017-11-15T01:30:22.866Z,8.12
2017-11-15T01:31:22.879Z,8.12
2017-11-15T01:32:22.894Z,8.13
2017-11-15T01:33:22.917Z,8.03
2017-11-15T01:34:22.921Z,7.95
2017-11-15T01:35:23.204Z,8.1
2017-11-15T01:36:22.949Z,8.09
2017-11-15T01:37:23.230Z,8.09
2017-11-15T01:38:23.244Z,8.08
2017-11-15T01:39:23.253Z,8.05
2017-11-15T01:40:22.994Z,8.08
2017-11-15T01:41:23.275Z,8.09
2017-11-15T01:42:23.019Z,8.09
2017-11-15T01:43:23.301Z,8.06
2017-11-15T01:44:22.778Z,8.13
2017-11-15T01:45:23.337Z,8.12
2017-11-15T01:46:23.069Z,8.1
2017-11-15T01:47:23.363Z,8.05
2017-11-15T01:48:23.374Z,8.08
2017-11-15T01:49:23.113Z,8.1
2017-11-15T01:50:23.394Z,8.1
2017-11-15T01:51:23.411Z,8.08
2017-11-15T01:52:23.422Z,8.1
2017-11-15T01:53:23.437Z,8.1
2017-11-15T01:54:23.443Z,8.05
2017-11-15T01:55:23.503Z,8.06
2017-11-15T01:56:23.472Z,8.12
2017-11-15T01:57:23.489Z,8.03
2017-11-15T01:58:23.497Z,8.09
2017-11-15T01:59:23.509Z,8.03
2017-11-15T02:00:23.543Z,8.12
2017-11-15T02:01:23.528Z,8.03
2017-11-15T02:02:23.280Z,8.1
2017-11-15T02:03:23.286Z,8.1
2017-11-15T02:04:23.299Z,8.13
2017-11-15T02:05:23.305Z,8.06
2017-11-15T02:06:23.593Z,8.06
2017-11-15T02:07:23.607Z,8.1
2017-11-15T02:08:23.351Z,8.1
2017-11-15T02:09:23.361Z,8.09
2017-11-15T02:10:23.706Z,8.09
2017-11-15T02:11:23.392Z,8.12
2017-11-15T02:12:23.399Z,8.09
2017-11-15T02:13:23.412Z,8.12
2017-11-15T02:14:23.704Z,8.13
2017-11-15T02:15:23.710Z,8.15
2017-11-15T02:16:23.723Z,8.06
2017-11-15T02:17:23.461Z,8.12
2017-11-15T02:18:23.776Z,8.1
2017-11-15T02:19:23.491Z,8.09
2017-11-15T02:20:23.506Z,8.08
2017-11-15T02:21:23.786Z,8.15
2017-11-15T02:22:23.796Z,8.15
2017-11-15T02:23:23.817Z,8.08
2017-11-15T02:24:23.826Z,8.12
2017-11-15T02:25:23.839Z,8.13
2017-11-15T02:26:23.585Z,8.16
2017-11-15T02:27:23.869Z,8.15
2017-11-15T02:28:23.882Z,8.13
2017-11-15T02:29:23.618Z,8.12
2017-11-15T02:30:23.928Z,8.1
2017-11-15T02:31:23.916Z,8.16
2017-11-15T02:32:23.658Z,8.15
2017-11-15T02:33:23.938Z,8.2
2017-11-15T02:34:23.963Z,8.15
2017-11-15T02:35:23.701Z,8.12
2017-11-15T02:36:23.713Z,8.13
2017-11-15T02:37:24.000Z,8.12
2017-11-15T02:38:23.777Z,8.15
2017-11-15T02:39:24.058Z,8.16
2017-11-15T02:40:24.047Z,8.12
2017-11-15T02:41:24.056Z,8.16
2017-11-15T02:42:23.989Z,8.16
2017-11-15T02:43:23.803Z,8.08
2017-11-15T02:44:24.126Z,8.1
2017-11-15T02:45:23.838Z,8.13
2017-11-15T02:46:23.564Z,8.1
2017-11-15T02:47:23.582Z,8.13
2017-11-15T02:48:24.142Z,8.15
2017-11-15T02:49:24.154Z,8.2
2017-11-15T02:50:23.901Z,8.16
2017-11-15T02:51:24.364Z,8.16
2017-11-15T02:52:24.199Z,8.18
2017-11-15T02:53:24.206Z,8.16
2017-11-15T02:54:23.940Z,8.12
2017-11-15T02:55:23.957Z,8.19
2017-11-15T02:56:24.257Z,8.16
2017-11-15T02:57:24.248Z,8.13
2017-11-15T02:58:23.990Z,8.19
2017-11-15T02:59:24.004Z,8.16
2017-11-15T03:00:24.301Z,8.23
2017-11-15T03:01:24.044Z,8.13
2017-11-15T03:02:24.318Z,8.23
2017-11-15T03:03:24.066Z,8.2
2017-11-15T03:04:24.067Z,8.2
2017-11-15T03:05:24.085Z,8.16
2017-11-15T03:06:24.365Z,8.16
2017-11-15T03:07:24.394Z,8.16
2017-11-15T03:08:23.850Z,8.19
2017-11-15T03:09:24.135Z,8.18
2017-11-15T03:10:24.413Z,8.24
2017-11-15T03:11:24.159Z,8.19
2017-11-15T03:12:24.472Z,8.16
2017-11-15T03:13:24.188Z,8.18
2017-11-15T03:14:24.194Z,8.18
2017-11-15T03:15:24.212Z,8.19
2017-11-15T03:16:24.222Z,8.18
2017-11-15T03:17:24.515Z,8.18
2017-11-15T03:18:24.254Z,8.19
2017-11-15T03:19:24.532Z,8.23
2017-11-15T03:20:24.546Z,8.2
2017-11-15T03:21:24.552Z,8.19
2017-11-15T03:22:24.581Z,8.19
2017-11-15T03:23:24.584Z,8.19
2017-11-15T03:24:24.596Z,8.19
2017-11-15T03:25:24.657Z,8.18
2017-11-15T03:26:24.357Z,8.16
2017-11-15T03:27:24.371Z,8.2
2017-11-15T03:28:24.109Z,8.24
2017-11-15T03:29:24.681Z,8.19
2017-11-15T03:30:24.677Z,8.19
2017-11-15T03:31:24.752Z,8.19
2017-11-15T03:32:24.429Z,8.19
2017-11-15T03:33:24.713Z,8.23
2017-11-15T03:34:24.464Z,8.19
2017-11-15T03:35:24.740Z,8.2
2017-11-15T03:36:24.759Z,8.2
2017-11-15T03:37:24.495Z,8.27
2017-11-15T03:38:24.778Z,8.26
2017-11-15T03:39:24.788Z,8.16
2017-11-15T03:40:24.810Z,8.18
2017-11-15T03:41:24.820Z,8.2
2017-11-15T03:42:24.828Z,8.2
2017-11-15T03:43:24.861Z,8.19
2017-11-15T03:44:24.867Z,8.19
2017-11-15T03:45:24.328Z,8.18
2017-11-15T03:46:24.624Z,8.2
2017-11-15T03:47:24.620Z,8.24
2017-11-15T03:48:24.902Z,8.15
2017-11-15T03:49:24.953Z,8.27
2017-11-15T03:50:24.940Z,8.26
2017-11-15T03:51:24.672Z,8.23
2017-11-15T03:52:24.960Z,8.27
2017-11-15T03:53:24.976Z,8.18
2017-11-15T03:54:24.711Z,8.23
2017-11-15T03:55:25.012Z,8.19
2017-11-15T03:56:24.874Z,8.3
2017-11-15T03:57:24.786Z,8.27
2017-11-15T03:58:25.034Z,8.23
2017-11-15T03:59:25.050Z,8.24
2017-11-15T04:00:24.788Z,8.18
2017-11-15T04:01:25.072Z,8.19
2017-11-15T04:02:24.827Z,8.23
2017-11-15T04:03:24.833Z,8.15
2017-11-15T04:04:25.131Z,8.23
2017-11-15T04:05:25.217Z,8.16
2017-11-15T04:06:24.864Z,8.24
2017-11-15T04:07:25.157Z,8.27
2017-11-15T04:08:24.891Z,8.26
2017-11-15T04:09:24.927Z,8.2
2017-11-15T04:10:25.368Z,8.27
2017-11-15T04:11:25.208Z,8.2
2017-11-15T04:12:25.214Z,8.13
2017-11-15T04:13:25.345Z,8.26
2017-11-15T04:14:24.968Z,8.16
2017-11-15T04:15:25.422Z,8.2
2017-11-15T04:16:24.996Z,8.2
2017-11-15T04:17:25.292Z,8.2
2017-11-15T04:18:24.752Z,8.26
2017-11-15T04:19:25.309Z,8.18
2017-11-15T04:20:25.049Z,8.23
2017-11-15T04:21:25.070Z,8.2
2017-11-15T04:22:25.357Z,8.24
2017-11-15T04:23:25.384Z,8.26
2017-11-15T04:24:25.391Z,8.24
2017-11-15T04:25:25.395Z,8.2
2017-11-15T04:26:25.402Z,8.19
2017-11-15T04:27:25.137Z,8.23
2017-11-15T04:28:25.420Z,8.26
2017-11-15T04:29:25.173Z,8.2
2017-11-15T04:30:25.174Z,8.24
2017-11-15T04:31:25.471Z,8.27
2017-11-15T04:32:25.213Z,8.2
2017-11-15T04:33:25.219Z,8.23
2017-11-15T04:34:25.523Z,8.23
2017-11-15T04:35:25.239Z,8.18
2017-11-15T04:36:25.533Z,8.27
2017-11-15T04:37:25.536Z,8.24
2017-11-15T04:38:25.280Z,8.31
2017-11-15T04:39:25.576Z,8.26
2017-11-15T04:40:25.578Z,8.19
2017-11-15T04:41:25.325Z,8.31
2017-11-15T04:42:25.334Z,8.18
2017-11-15T04:43:25.633Z,8.2
2017-11-15T04:44:25.649Z,8.26
2017-11-15T04:45:25.648Z,8.2
2017-11-15T04:46:25.393Z,8.27
2017-11-15T04:47:25.397Z,8.26
2017-11-15T04:48:25.690Z,8.26
2017-11-15T04:49:25.699Z,8.27
2017-11-15T04:50:25.712Z,8.19
2017-11-15T04:51:25.450Z,8.2
2017-11-15T04:52:25.732Z,8.24
2017-11-15T04:53:25.745Z,8.28
2017-11-15T04:54:25.765Z,8.23
2017-11-15T04:55:25.230Z,8.23
2017-11-15T04:56:25.783Z,8.2
2017-11-15T04:57:25.800Z,8.27
2017-11-15T04:58:25.549Z,8.2
2017-11-15T04:59:25.556Z,8.23
2017-11-15T05:00:25.854Z,8.33
2017-11-15T05:01:25.848Z,8.3
2017-11-15T05:02:25.871Z,8.28
2017-11-15T05:03:25.888Z,8.19
2017-11-15T05:04:25.622Z,8.36
2017-11-15T05:05:25.632Z,8.27
2017-11-15T05:06:25.910Z,8.2
2017-11-15T05:07:25.661Z,8.24
2017-11-15T05:08:25.669Z,8.19
2017-11-15T05:09:25.997Z,8.18
2017-11-15T05:10:25.711Z,8.33
2017-11-15T05:11:25.750Z,8.28
2017-11-15T05:12:25.727Z,8.26
2017-11-15T05:13:25.752Z,8.19
2017-11-15T05:14:25.746Z,8.33
2017-11-15T05:15:25.767Z,8.3
2017-11-15T05:16:26.057Z,8.18
2017-11-15T05:17:25.786Z,8.24
2017-11-15T05:18:26.069Z,8.34
2017-11-15T05:19:26.084Z,8.31
2017-11-15T05:20:25.559Z,8.33
2017-11-15T05:21:25.841Z,8.24
2017-11-15T05:22:25.857Z,8.28
2017-11-15T05:23:25.870Z,8.19
2017-11-15T05:24:25.878Z,8.2
2017-11-15T05:25:26.162Z,8.28
2017-11-15T05:26:25.917Z,8.27
2017-11-15T05:27:25.917Z,8.34
2017-11-15T05:28:26.204Z,8.3
2017-11-15T05:29:26.224Z,8.36
2017-11-15T05:30:26.241Z,8.19
2017-11-15T05:31:25.979Z,8.28
2017-11-15T05:32:26.265Z,8.23
2017-11-15T05:33:26.276Z,8.26
2017-11-15T05:34:26.007Z,8.24
2017-11-15T05:35:26.029Z,8.23
2017-11-15T05:36:26.040Z,8.33
2017-11-15T05:37:26.052Z,8.27
2017-11-15T05:38:26.331Z,8.16
2017-11-15T05:39:26.341Z,8.23
2017-11-15T05:40:26.355Z,8.3
2017-11-15T05:41:26.104Z,8.27
2017-11-15T05:42:26.125Z,8.24
2017-11-15T05:43:26.405Z,8.34
2017-11-15T05:44:26.142Z,8.2
2017-11-15T05:45:26.421Z,8.31
2017-11-15T05:46:26.170Z,8.33
2017-11-15T05:47:26.469Z,8.27
2017-11-15T05:48:26.195Z,8.23
2017-11-15T05:49:26.479Z,8.33
2017-11-15T05:50:26.489Z,8.28
2017-11-15T05:51:26.230Z,8.28
2017-11-15T05:52:25.977Z,8.33
2017-11-15T05:53:26.256Z,8.33
2017-11-15T05:54:26.546Z,8.33
2017-11-15T05:55:26.548Z,8.31
2017-11-15T05:56:26.566Z,8.31
2017-11-15T05:57:26.575Z,8.33
2017-11-15T05:58:26.602Z,8.33
2017-11-15T05:59:26.601Z,8.19
2017-11-15T06:00:26.659Z,8.23
2017-11-15T06:01:26.633Z,8.26
2017-11-15T06:02:26.375Z,8.33
2017-11-15T06:03:26.386Z,8.36
2017-11-15T06:04:26.134Z,8.33
2017-11-15T06:05:26.417Z,8.3
2017-11-15T06:06:26.439Z,8.36
2017-11-15T06:07:26.441Z,8.34
2017-11-15T06:08:26.721Z,8.36
2017-11-15T06:09:26.614Z,8.34
2017-11-15T06:10:26.232Z,8.31
2017-11-15T06:11:27.012Z,8.37
2017-11-15T06:12:26.686Z,8.3
2017-11-15T06:13:26.594Z,8.31
2017-11-15T06:14:26.975Z,8.36
2017-11-15T06:15:26.994Z,8.28
2017-11-15T06:16:26.973Z,8.34
2017-11-15T06:17:26.933Z,8.33
2017-11-15T06:18:27.006Z,8.28
2017-11-15T06:19:26.677Z,8.31
2017-11-15T06:20:26.669Z,8.34
2017-11-15T06:21:26.953Z,8.36
2017-11-15T06:22:27.145Z,8.34
2017-11-15T06:23:27.152Z,8.36
2017-11-15T06:24:27.165Z,8.37
2017-11-15T06:25:27.178Z,8.34
2017-11-15T06:26:27.120Z,8.31
2017-11-15T06:27:27.123Z,8.36
2017-11-15T06:28:26.772Z,8.33
2017-11-15T06:29:27.067Z,8.33
2017-11-15T06:30:26.809Z,8.34
2017-11-15T06:31:27.325Z,8.38
2017-11-15T06:32:27.196Z,8.36
2017-11-15T06:33:27.264Z,8.33
2017-11-15T06:34:26.800Z,8.37
2017-11-15T06:35:26.898Z,8.36
2017-11-15T06:36:27.110Z,8.37
2017-11-15T06:37:26.887Z,8.36
2017-11-15T06:38:27.124Z,8.37
2017-11-15T06:39:26.583Z,8.31
2017-11-15T06:40:27.149Z,8.37
2017-11-15T06:41:27.154Z,8.36
2017-11-15T06:42:26.627Z,8.28
2017-11-15T06:43:27.191Z,8.31
2017-11-15T06:44:27.252Z,8.41
2017-11-15T06:45:26.931Z,8.36
2017-11-15T06:46:27.225Z,8.38
2017-11-15T06:47:26.956Z,8.37
2017-11-15T06:48:26.704Z,8.31
2017-11-15T06:49:27.255Z,8.33
2017-11-15T06:50:27.281Z,8.33
2017-11-15T06:51:27.294Z,8.31
2017-11-15T06:52:27.032Z,8.31
2017-11-15T06:53:27.320Z,8.37
2017-11-15T06:54:27.323Z,8.36
2017-11-15T06:55:27.333Z,8.38
2017-11-15T06:56:27.358Z,8.41
2017-11-15T06:57:27.363Z,8.33
2017-11-15T06:58:27.384Z,8.37
2017-11-15T06:59:27.392Z,8.34
2017-11-15T07:00:27.404Z,8.46
2017-11-15T07:01:27.412Z,8.38
2017-11-15T07:02:27.431Z,8.46
2017-11-15T07:03:27.166Z,8.42
2017-11-15T07:04:27.199Z,8.45
2017-11-15T07:05:27.473Z,8.45
2017-11-15T07:06:26.939Z,8.44
2017-11-15T07:07:27.495Z,8.44
2017-11-15T07:08:27.499Z,8.51
2017-11-15T07:09:27.246Z,8.44
2017-11-15T07:10:27.269Z,8.46
2017-11-15T07:11:27.278Z,8.51
2017-11-15T07:12:27.285Z,8.52
2017-11-15T07:13:27.577Z,8.52
2017-11-15T07:14:27.324Z,8.53
2017-11-15T07:15:27.594Z,8.49
2017-11-15T07:16:27.629Z,8.49
2017-11-15T07:17:27.350Z,8.53
2017-11-15T07:18:27.636Z,8.48
2017-11-15T07:19:27.381Z,8.51
2017-11-15T07:20:27.406Z,8.52
2017-11-15T07:21:27.684Z,8.51
2017-11-15T07:22:27.421Z,8.51
2017-11-15T07:23:27.701Z,8.55
2017-11-15T07:24:27.724Z,8.49
2017-11-15T07:25:27.482Z,8.52
2017-11-15T07:26:27.850Z,8.49
2017-11-15T07:27:27.499Z,8.51
2017-11-15T07:28:27.242Z,8.53
2017-11-15T07:29:27.513Z,8.52
2017-11-15T07:30:27.521Z,8.51
2017-11-15T07:31:27.823Z,8.51
2017-11-15T07:32:27.555Z,8.53
2017-11-15T07:33:27.887Z,8.51
2017-11-15T07:34:27.887Z,8.52
2017-11-15T07:35:27.589Z,8.52
2017-11-15T07:36:27.869Z,8.52
2017-11-15T07:37:27.620Z,8.55
2017-11-15T07:38:27.899Z,8.51
2017-11-15T07:39:27.920Z,8.52
2017-11-15T07:40:27.655Z,8.63
2017-11-15T07:41:27.974Z,8.56
2017-11-15T07:42:27.949Z,8.6
2017-11-15T07:43:28.019Z,8.58
2017-11-15T07:44:27.978Z,8.6
2017-11-15T07:45:28.003Z,8.64
2017-11-15T07:46:28.023Z,8.58
2017-11-15T07:47:27.754Z,8.63
2017-11-15T07:48:28.033Z,8.63
2017-11-15T07:49:27.778Z,8.64
2017-11-15T07:50:28.067Z,8.66
2017-11-15T07:51:28.081Z,8.64
2017-11-15T07:52:27.819Z,8.66
2017-11-15T07:53:27.828Z,8.7
2017-11-15T07:54:28.107Z,8.71
2017-11-15T07:55:27.613Z,8.73
2017-11-15T07:56:27.596Z,8.7
2017-11-15T07:57:27.900Z,8.71
2017-11-15T07:58:28.164Z,8.71
2017-11-15T07:59:28.183Z,8.7
2017-11-15T08:00:27.919Z,8.69
2017-11-15T08:01:28.205Z,8.69
2017-11-15T08:02:28.221Z,8.71
2017-11-15T08:03:27.961Z,8.66
2017-11-15T08:04:28.246Z,8.73
2017-11-15T08:05:28.266Z,8.7
2017-11-15T08:06:28.269Z,8.69
2017-11-15T08:07:28.012Z,8.87
2017-11-15T08:08:28.299Z,8.74
2017-11-15T08:09:28.306Z,8.84
2017-11-15T08:10:28.051Z,8.71
2017-11-15T08:11:28.334Z,8.78
2017-11-15T08:12:28.418Z,8.85
2017-11-15T08:13:28.377Z,8.84
2017-11-15T08:14:28.396Z,8.84
2017-11-15T08:15:28.118Z,8.79
2017-11-15T08:16:28.413Z,8.79
2017-11-15T08:17:28.428Z,8.84
2017-11-15T08:18:28.444Z,8.92
2017-11-15T08:19:28.179Z,8.95
2017-11-15T08:20:28.460Z,8.87
2017-11-15T08:21:28.498Z,8.88
2017-11-15T08:22:28.486Z,8.87
2017-11-15T08:23:28.508Z,8.94
2017-11-15T08:24:28.518Z,8.97
2017-11-15T08:25:28.536Z,9.03
2017-11-15T08:26:28.540Z,8.99
2017-11-15T08:27:28.556Z,8.99
2017-11-15T08:28:28.574Z,8.95
2017-11-15T08:29:28.582Z,8.99
2017-11-15T08:30:28.585Z,8.99
2017-11-15T08:31:28.341Z,9
2017-11-15T08:32:28.351Z,8.99
2017-11-15T08:33:28.630Z,8.94
2017-11-15T08:34:28.382Z,8.99
2017-11-15T08:35:28.667Z,9.04
2017-11-15T08:36:28.668Z,8.97
2017-11-15T08:37:28.682Z,8.95
2017-11-15T08:38:28.164Z,8.97
2017-11-15T08:39:28.445Z,9.02
2017-11-15T08:40:28.459Z,9.06
2017-11-15T08:41:28.469Z,9.06
2017-11-15T08:42:28.751Z,9.08
2017-11-15T08:43:28.766Z,9.03
2017-11-15T08:44:28.780Z,9.08
2017-11-15T08:45:28.798Z,9.1
2017-11-15T08:46:28.567Z,9.11
2017-11-15T08:47:28.820Z,9.1
2017-11-15T08:48:28.835Z,9.11
2017-11-15T08:49:28.850Z,9.21
2017-11-15T08:50:28.591Z,9.13
2017-11-15T08:51:28.612Z,9.18
2017-11-15T08:52:28.614Z,9.19
2017-11-15T08:53:28.638Z,9.14
2017-11-15T08:54:28.912Z,9.14
2017-11-15T08:55:28.967Z,9.18
2017-11-15T08:56:28.676Z,9.14
2017-11-15T08:57:28.741Z,9.13
2017-11-15T08:58:28.700Z,9.22
2017-11-15T08:59:28.982Z,9.16
2017-11-15T09:00:29.005Z,9.19
2017-11-15T09:01:29.011Z,9.22
2017-11-15T09:02:29.040Z,9.14
2017-11-15T09:03:28.770Z,9.14
2017-11-15T09:04:28.778Z,9.14
2017-11-15T09:05:29.070Z,9.18
2017-11-15T09:06:28.811Z,9.16
2017-11-15T09:07:29.107Z,9.21
2017-11-15T09:08:28.862Z,9.21
2017-11-15T09:09:28.866Z,9.25
2017-11-15T09:10:28.865Z,9.25
2017-11-15T09:11:28.881Z,9.29
2017-11-15T09:12:28.890Z,9.28
2017-11-15T09:13:28.915Z,9.28
2017-11-15T09:14:29.206Z,9.21
2017-11-15T09:15:29.209Z,9.23
2017-11-15T09:16:28.949Z,9.36
2017-11-15T09:17:28.959Z,9.28
2017-11-15T09:18:29.254Z,9.21
2017-11-15T09:19:28.986Z,9.41
2017-11-15T09:20:29.269Z,9.36
2017-11-15T09:21:29.300Z,9.4
2017-11-15T09:22:29.303Z,9.34
2017-11-15T09:23:29.044Z,9.36
2017-11-15T09:24:29.059Z,9.44
2017-11-15T09:25:29.070Z,9.4
2017-11-15T09:26:29.362Z,9.47
2017-11-15T09:27:29.371Z,9.37
2017-11-15T09:28:29.117Z,9.47
2017-11-15T09:29:29.144Z,9.47
2017-11-15T09:30:29.413Z,9.47
2017-11-15T09:31:29.431Z,9.43
2017-11-15T09:32:29.441Z,9.47
2017-11-15T09:33:29.185Z,9.46
2017-11-15T09:34:29.479Z,9.48
2017-11-15T09:35:29.480Z,9.44
2017-11-15T09:36:29.232Z,9.43
2017-11-15T09:37:29.510Z,9.44
2017-11-15T09:38:28.981Z,9.41
2017-11-15T09:39:29.544Z,9.47
2017-11-15T09:40:29.549Z,9.46
2017-11-15T09:41:29.563Z,9.5
2017-11-15T09:42:29.600Z,9.46
2017-11-15T09:43:29.332Z,9.41
2017-11-15T09:44:29.349Z,9.43
2017-11-15T09:45:29.625Z,9.43
2017-11-15T09:46:29.367Z,9.41
2017-11-15T09:47:29.648Z,9.46
2017-11-15T09:48:29.658Z,9.48
2017-11-15T09:49:29.671Z,9.41
2017-11-15T09:50:29.420Z,9.4
2017-11-15T09:51:29.164Z,9.44
2017-11-15T09:52:29.718Z,9.41
2017-11-15T09:53:29.732Z,9.41
2017-11-15T09:54:29.753Z,9.41
2017-11-15T09:55:29.763Z,9.37
2017-11-15T09:56:29.783Z,9.46
2017-11-15T09:57:29.803Z,9.5
2017-11-15T09:58:29.530Z,9.44
2017-11-15T09:59:29.542Z,9.4
2017-11-15T10:00:29.829Z,9.46
2017-11-15T10:01:29.858Z,9.43
2017-11-15T10:02:29.872Z,9.47
2017-11-15T10:03:29.623Z,9.48
2017-11-15T10:04:29.889Z,9.4
2017-11-15T10:05:29.893Z,9.46
2017-11-15T10:06:29.643Z,9.47
2017-11-15T10:07:29.653Z,9.47
2017-11-15T10:08:29.672Z,9.47
2017-11-15T10:09:29.680Z,9.59
2017-11-15T10:10:29.429Z,9.55
2017-11-15T10:11:29.714Z,9.61
2017-11-15T10:12:30.004Z,9.68
2017-11-15T10:13:30.010Z,9.64
2017-11-15T10:14:30.032Z,9.73
2017-11-15T10:15:30.036Z,9.79
2017-11-15T10:16:30.049Z,9.68
2017-11-15T10:17:30.063Z,9.79
2017-11-15T10:18:30.071Z,9.82
2017-11-15T10:19:30.099Z,9.82
2017-11-15T10:20:30.138Z,9.94
2017-11-15T10:21:30.122Z,9.97
2017-11-15T10:22:30.131Z,9.94
2017-11-15T10:23:30.150Z,10.05
2017-11-15T10:24:30.163Z,10.17
2017-11-15T10:25:30.171Z,10.1
2017-11-15T10:26:30.196Z,10.19
2017-11-15T10:27:30.205Z,10.15
2017-11-15T10:28:30.226Z,10.28
2017-11-15T10:29:30.240Z,10.26
2017-11-15T10:30:30.243Z,10.25
2017-11-15T10:31:30.280Z,10.31
2017-11-15T10:32:30.275Z,10.38
2017-11-15T10:33:30.292Z,10.3
2017-11-15T10:34:30.308Z,10.31
2017-11-15T10:35:30.315Z,10.38
2017-11-15T10:36:30.346Z,10.42
2017-11-15T10:37:30.361Z,10.49
2017-11-15T10:38:30.360Z,10.42
2017-11-15T10:39:30.387Z,10.53
2017-11-15T10:40:30.118Z,10.57
2017-11-15T10:41:30.408Z,10.54
2017-11-15T10:42:30.463Z,10.6
2017-11-15T10:43:30.434Z,10.64
2017-11-15T10:44:30.449Z,10.53
2017-11-15T10:45:30.463Z,10.64
2017-11-15T10:46:30.483Z,10.57
2017-11-15T10:47:30.500Z,10.64
2017-11-15T10:48:30.248Z,10.61
2017-11-15T10:49:30.258Z,10.78
2017-11-15T10:50:30.541Z,10.76
2017-11-15T10:51:30.550Z,10.78
2017-11-15T10:52:30.587Z,10.75
2017-11-15T10:53:30.586Z,10.75
2017-11-15T10:54:30.323Z,10.78
2017-11-15T10:55:30.601Z,10.84
2017-11-15T10:56:30.635Z,10.81
2017-11-15T10:57:30.646Z,10.75
2017-11-15T10:58:30.661Z,10.81
2017-11-15T10:59:30.400Z,10.81
2017-11-15T11:00:30.682Z,10.84
2017-11-15T11:01:30.701Z,10.81
2017-11-15T11:02:30.450Z,10.79
2017-11-15T11:03:30.733Z,10.87
2017-11-15T11:04:30.480Z,10.82
2017-11-15T11:05:30.751Z,10.94
2017-11-15T11:06:30.498Z,10.92
2017-11-15T11:07:30.783Z,10.9
2017-11-15T11:08:30.530Z,10.93
2017-11-15T11:09:30.822Z,10.97
2017-11-15T11:10:30.824Z,10.94
2017-11-15T11:11:31.148Z,10.99
2017-11-15T11:12:30.592Z,10.97
2017-11-15T11:13:30.869Z,11
2017-11-15T11:14:30.614Z,11.02
2017-11-15T11:15:30.364Z,11.05
2017-11-15T11:16:30.660Z,11.05
2017-11-15T11:17:30.958Z,11.1
2017-11-15T11:18:30.682Z,11.08
2017-11-15T11:19:30.966Z,11.08
2017-11-15T11:20:31.041Z,11.1
2017-11-15T11:21:30.996Z,11.08
2017-11-15T11:22:31.018Z,11.19
2017-11-15T11:23:31.020Z,11.18
2017-11-15T11:24:30.771Z,11.18
2017-11-15T11:25:31.060Z,11.22
2017-11-15T11:26:30.800Z,11.14
2017-11-15T11:27:31.098Z,11.14
2017-11-15T11:28:30.825Z,11.17
2017-11-15T11:29:30.862Z,11.17
2017-11-15T11:30:31.133Z,11.22
2017-11-15T11:31:30.877Z,11.22
2017-11-15T11:32:31.164Z,11.23
2017-11-15T11:33:30.919Z,11.23
2017-11-15T11:34:31.196Z,11.27
2017-11-15T11:35:30.933Z,11.25
2017-11-15T11:36:31.230Z,11.3
2017-11-15T11:37:30.964Z,11.23
2017-11-15T11:38:31.260Z,11.19
2017-11-15T11:39:31.266Z,11.32
2017-11-15T11:40:31.291Z,11.37
2017-11-15T11:41:31.305Z,11.27
2017-11-15T11:42:31.309Z,11.37
2017-11-15T11:43:31.054Z,11.37
2017-11-15T11:44:31.347Z,11.3
2017-11-15T11:45:31.380Z,11.36
2017-11-15T11:46:31.391Z,11.36
2017-11-15T11:47:31.125Z,11.4
2017-11-15T11:48:31.402Z,11.43
2017-11-15T11:49:31.421Z,11.36
2017-11-15T11:50:31.436Z,11.43
2017-11-15T11:51:31.178Z,11.35
2017-11-15T11:52:31.462Z,11.36
2017-11-15T11:53:31.488Z,11.37
2017-11-15T11:54:31.499Z,11.32
2017-11-15T11:55:31.511Z,11.41
2017-11-15T11:56:31.266Z,11.36
2017-11-15T11:57:31.269Z,11.45
2017-11-15T11:58:31.556Z,11.4
2017-11-15T11:59:31.304Z,11.41
2017-11-15T12:00:31.317Z,11.36
2017-11-15T12:01:31.335Z,11.48
2017-11-15T12:02:31.076Z,11.45
2017-11-15T12:03:31.633Z,11.47
2017-11-15T12:04:31.646Z,11.44
2017-11-15T12:05:31.397Z,11.48
2017-11-15T12:06:31.693Z,11.45
2017-11-15T12:07:31.701Z,11.5
2017-11-15T12:08:31.716Z,11.43
2017-11-15T12:09:31.463Z,11.51
2017-11-15T12:10:31.750Z,11.44
2017-11-15T12:11:31.769Z,11.35
2017-11-15T12:12:31.505Z,11.5
2017-11-15T12:13:31.793Z,11.37
2017-11-15T12:14:31.536Z,11.47
2017-11-15T12:15:31.547Z,11.44
2017-11-15T12:16:31.568Z,11.41
2017-11-15T12:17:31.869Z,11.43
2017-11-15T12:18:31.604Z,11.41
2017-11-15T12:19:31.611Z,11.43
2017-11-15T12:20:31.896Z,11.4
2017-11-15T12:21:31.642Z,11.37
2017-11-15T12:22:31.928Z,11.43
2017-11-15T12:23:31.961Z,11.4
2017-11-15T12:24:32.004Z,11.36
2017-11-15T12:25:31.983Z,11.43
2017-11-15T12:26:31.990Z,11.37
2017-11-15T12:27:31.734Z,11.37
2017-11-15T12:28:32.018Z,11.4
2017-11-15T12:29:32.051Z,11.36
2017-11-15T12:30:32.052Z,11.41
2017-11-15T12:31:31.819Z,11.41
2017-11-15T12:32:32.094Z,11.36
2017-11-15T12:33:32.113Z,11.35
2017-11-15T12:34:31.571Z,11.41
2017-11-15T12:35:32.133Z,11.36
2017-11-15T12:36:32.146Z,11.43
2017-11-15T12:37:32.165Z,11.36
2017-11-15T12:38:32.184Z,11.32
2017-11-15T12:39:32.211Z,11.37
2017-11-15T12:40:32.206Z,11.35
2017-11-15T12:41:31.952Z,11.29
2017-11-15T12:42:32.249Z,11.33
2017-11-15T12:43:32.269Z,11.33
2017-11-15T12:44:32.271Z,11.26
2017-11-15T12:45:32.290Z,11.26
2017-11-15T12:46:32.306Z,11.25
2017-11-15T12:47:32.056Z,11.29
2017-11-15T12:48:32.062Z,11.35
2017-11-15T12:49:32.341Z,11.26
2017-11-15T12:50:32.369Z,11.3
2017-11-15T12:51:32.401Z,11.27
2017-11-15T12:52:32.125Z,11.35
2017-11-15T12:53:32.425Z,11.32
2017-11-15T12:54:32.434Z,11.3
2017-11-15T12:55:32.441Z,11.25
2017-11-15T12:56:32.459Z,11.27
2017-11-15T12:57:32.463Z,11.32
2017-11-15T12:58:32.527Z,11.33
2017-11-15T12:59:32.495Z,11.3
2017-11-15T13:00:32.276Z,11.37
2017-11-15T13:01:32.265Z,11.4
2017-11-15T13:02:32.553Z,11.36
2017-11-15T13:03:32.297Z,11.41
2017-11-15T13:04:32.580Z,11.37
2017-11-15T13:05:32.329Z,11.4
2017-11-15T13:06:32.360Z,11.44
2017-11-15T13:07:32.355Z,11.35
2017-11-15T13:08:32.654Z,11.36
2017-11-15T13:09:32.659Z,11.41
2017-11-15T13:10:32.407Z,11.4
2017-11-15T13:11:32.689Z,11.37
2017-11-15T13:12:32.705Z,11.43
2017-11-15T13:13:32.729Z,11.47
2017-11-15T13:14:32.469Z,11.37
2017-11-15T13:15:32.752Z,11.41
2017-11-15T13:16:32.770Z,11.44